createdAt,value
2018-06-20T00:01:48.068Z,19.10
2018-06-20T00:04:17.029Z,19.10
2018-06-20T00:06:46.041Z,19.10
2018-06-20T00:09:15.110Z,19.10
2018-06-20T00:11:44.113Z,19.10
2018-06-20T00:14:13.100Z,19.10
2018-06-20T00:16:42.121Z,19.10
2018-06-20T00:19:11.104Z,19.00
2018-06-20T00:21:40.125Z,19.00
2018-06-20T00:24:09.125Z,19.00
2018-06-20T00:26:38.187Z,19.00
2018-06-20T00:29:07.243Z,19.00
2018-06-20T00:31:36.226Z,19.00
2018-06-20T00:34:05.390Z,19.00
2018-06-20T00:36:34.575Z,19.00
2018-06-20T00:39:04.570Z,19.00
2018-06-20T00:41:33.611Z,19.00
2018-06-20T00:44:02.740Z,18.90
2018-06-20T00:46:31.746Z,18.90
2018-06-20T00:49:00.731Z,18.90
2018-06-20T00:51:29.825Z,18.90
2018-06-20T00:53:59.037Z,18.90
2018-06-20T00:56:29.328Z,18.80
2018-06-20T00:58:58.347Z,18.80
2018-06-20T01:01:27.323Z,18.80
2018-06-20T01:03:56.433Z,18.80
2018-06-20T01:08:54.134Z,18.90
2018-06-20T01:13:51.991Z,18.80
2018-06-20T01:16:20.989Z,18.80
2018-06-20T01:18:50.006Z,18.80
2018-06-20T01:21:19.099Z,18.80
2018-06-20T01:23:48.237Z,18.80
2018-06-20T01:26:17.309Z,18.80
2018-06-20T01:28:46.297Z,18.80
2018-06-20T01:31:15.269Z,18.80
2018-06-20T01:33:44.364Z,18.70
2018-06-20T01:36:13.338Z,18.70
2018-06-20T01:38:42.319Z,18.80
2018-06-20T01:41:11.246Z,18.80
2018-06-20T01:43:40.259Z,18.80
2018-06-20T01:46:09.206Z,18.80
2018-06-20T01:48:38.282Z,18.80
2018-06-20T01:51:07.278Z,18.80
2018-06-20T01:53:36.377Z,18.80
2018-06-20T01:56:05.376Z,18.80
2018-06-20T01:58:34.447Z,18.70
2018-06-20T02:01:03.460Z,18.80
2018-06-20T02:03:32.449Z,18.80
2018-06-20T02:06:01.484Z,18.80
2018-06-20T02:08:30.505Z,18.70
2018-06-20T02:10:59.474Z,18.70
2018-06-20T02:13:28.425Z,18.70
2018-06-20T02:15:57.396Z,18.60
2018-06-20T02:18:26.386Z,18.60
2018-06-20T02:20:55.397Z,18.60
2018-06-20T02:25:52.946Z,18.60
2018-06-20T02:28:21.898Z,18.60
2018-06-20T02:30:50.875Z,18.60
2018-06-20T02:33:19.829Z,18.60
2018-06-20T02:40:46.308Z,18.60
2018-06-20T02:43:15.339Z,18.60
2018-06-20T02:45:44.322Z,18.60
2018-06-20T02:48:13.298Z,18.60
2018-06-20T02:50:42.315Z,18.60
2018-06-20T02:53:11.493Z,18.70
2018-06-20T02:55:40.419Z,18.70
2018-06-20T02:58:09.435Z,18.70
2018-06-20T03:00:38.388Z,18.60
2018-06-20T03:03:07.352Z,18.60
2018-06-20T03:05:36.348Z,18.60
2018-06-20T03:08:05.422Z,18.60
2018-06-20T03:10:34.386Z,18.60
2018-06-20T03:13:03.368Z,18.60
2018-06-20T03:15:32.328Z,18.60
2018-06-20T03:18:01.350Z,18.50
2018-06-20T03:20:30.299Z,18.50
2018-06-20T03:22:59.246Z,18.50
2018-06-20T03:25:28.241Z,18.50
2018-06-20T03:27:57.196Z,18.50
2018-06-20T03:30:26.175Z,18.50
2018-06-20T03:32:55.141Z,18.50
2018-06-20T03:35:25.471Z,18.50
2018-06-20T03:37:54.530Z,18.40
2018-06-20T03:40:23.523Z,18.40
2018-06-20T03:42:52.495Z,18.40
2018-06-20T03:45:21.548Z,18.40
2018-06-20T03:47:50.890Z,18.40
2018-06-20T03:50:19.849Z,18.40
2018-06-20T03:52:48.779Z,18.40
2018-06-20T03:57:46.439Z,18.40
2018-06-20T04:00:15.670Z,18.40
2018-06-20T04:02:44.803Z,18.40
2018-06-20T04:05:13.846Z,18.50
2018-06-20T04:10:11.806Z,18.60
2018-06-20T04:12:40.913Z,18.60
2018-06-20T04:15:09.910Z,18.60
2018-06-20T04:17:38.929Z,18.60
2018-06-20T04:20:07.916Z,18.70
2018-06-20T04:22:36.917Z,18.70
2018-06-20T04:25:05.909Z,18.80
2018-06-20T04:27:34.926Z,18.70
2018-06-20T04:30:03.951Z,18.70
2018-06-20T04:32:33.120Z,18.80
2018-06-20T04:35:02.210Z,18.80
2018-06-20T04:37:31.260Z,18.90
2018-06-20T04:40:00.338Z,19.00
2018-06-20T04:42:29.287Z,19.00
2018-06-20T04:44:58.330Z,19.00
2018-06-20T04:47:27.334Z,19.20
2018-06-20T04:49:56.482Z,19.40
2018-06-20T04:52:25.486Z,19.60
2018-06-20T04:54:54.536Z,19.80
2018-06-20T04:57:23.572Z,19.90
2018-06-20T04:59:52.706Z,19.90
2018-06-20T05:02:21.703Z,19.90
2018-06-20T05:04:50.657Z,19.80
2018-06-20T05:07:19.738Z,19.80
2018-06-20T05:09:48.743Z,19.70
2018-06-20T05:12:17.693Z,19.60
2018-06-20T05:14:46.642Z,19.60
2018-06-20T05:17:15.648Z,19.80
2018-06-20T05:24:41.872Z,20.80
2018-06-20T05:27:10.894Z,20.90
2018-06-20T05:29:39.897Z,20.90
2018-06-20T05:32:08.946Z,21.00
2018-06-20T05:34:37.949Z,20.90
2018-06-20T05:39:35.565Z,21.30
2018-06-20T05:42:04.532Z,21.60
2018-06-20T05:47:02.123Z,21.80
2018-06-20T05:49:31.177Z,21.70
2018-06-20T05:52:00.181Z,21.60
2018-06-20T05:56:58.595Z,21.60
2018-06-20T05:59:27.525Z,21.50
2018-06-20T06:01:56.709Z,21.50
2018-06-20T06:04:25.725Z,21.50
2018-06-20T06:06:54.693Z,21.50
2018-06-20T06:09:23.703Z,21.60
2018-06-20T06:11:53.691Z,21.70
2018-06-20T06:14:22.698Z,21.80
2018-06-20T06:16:51.774Z,21.90
2018-06-20T06:19:20.634Z,22.00
2018-06-20T06:21:49.776Z,22.10
2018-06-20T06:24:18.717Z,22.00
2018-06-20T06:26:47.653Z,22.20
2018-06-20T06:29:17.096Z,22.30
2018-06-20T06:34:14.648Z,22.40
2018-06-20T06:39:13.281Z,22.40
2018-06-20T06:41:42.268Z,22.40
2018-06-20T06:44:11.369Z,22.50
2018-06-20T06:46:40.352Z,22.60
2018-06-20T06:51:38.128Z,22.60
2018-06-20T06:54:07.152Z,22.70
2018-06-20T06:56:36.085Z,22.90
2018-06-20T06:59:05.042Z,22.90
2018-06-20T07:01:33.985Z,22.90
2018-06-20T07:04:02.910Z,23.00
2018-06-20T07:06:31.928Z,23.00
2018-06-20T07:09:00.862Z,22.90
2018-06-20T07:16:27.096Z,23.00
2018-06-20T07:18:56.090Z,23.10
2018-06-20T07:21:25.367Z,23.00
2018-06-20T07:23:54.423Z,22.90
2018-06-20T07:26:23.587Z,22.90
2018-06-20T07:28:52.878Z,23.00
2018-06-20T07:31:21.882Z,23.40
2018-06-20T07:33:50.811Z,24.10
2018-06-20T07:36:20.074Z,24.80
2018-06-20T07:38:48.858Z,25.30
2018-06-20T07:41:17.811Z,25.20
2018-06-20T07:43:47.540Z,25.10
2018-06-20T07:46:16.444Z,24.80
2018-06-20T07:51:14.110Z,24.00
2018-06-20T07:53:43.157Z,23.80
2018-06-20T07:56:12.104Z,23.80
2018-06-20T07:58:46.438Z,24.20
2018-06-20T08:04:01.312Z,24.20
2018-06-20T08:06:36.528Z,24.20
2018-06-20T08:09:12.624Z,24.10
2018-06-20T08:11:47.124Z,24.10
2018-06-20T08:14:21.733Z,24.20
2018-06-20T08:16:56.308Z,24.30
2018-06-20T08:19:30.641Z,24.60
2018-06-20T08:21:59.634Z,25.00
2018-06-20T08:24:28.565Z,25.70
2018-06-20T08:26:57.507Z,25.70
2018-06-20T08:29:26.496Z,25.50
2018-06-20T08:31:55.432Z,25.20
2018-06-20T08:36:53.078Z,24.80
2018-06-20T08:39:22.077Z,25.10
2018-06-20T08:41:51.298Z,25.50
2018-06-20T08:44:20.630Z,25.90
2018-06-20T08:46:49.607Z,26.20
2018-06-20T08:49:18.557Z,26.40
2018-06-20T08:51:48.071Z,26.80
2018-06-20T08:54:17.075Z,27.40
2018-06-20T08:56:46.135Z,27.60
2018-06-20T08:59:15.063Z,27.50
2018-06-20T09:01:44.474Z,26.70
2018-06-20T09:04:18.842Z,26.40
2018-06-20T09:06:53.183Z,26.10
2018-06-20T09:09:27.697Z,25.70
2018-06-20T09:14:35.122Z,25.70
2018-06-20T09:17:09.539Z,25.80
2018-06-20T09:19:47.473Z,26.00
2018-06-20T09:22:17.621Z,26.50
2018-06-20T09:24:46.726Z,27.00
2018-06-20T09:27:16.165Z,27.20
2018-06-20T09:29:45.269Z,26.90
2018-06-20T09:34:44.441Z,26.60
2018-06-20T09:37:13.564Z,26.80
2018-06-20T09:39:42.545Z,27.10
2018-06-20T09:42:11.470Z,27.50
2018-06-20T09:44:40.553Z,27.30
2018-06-20T09:49:38.528Z,27.60
2018-06-20T09:52:07.524Z,28.10
2018-06-20T09:54:36.911Z,27.90
2018-06-20T09:57:05.939Z,27.60
2018-06-20T09:59:40.339Z,27.40
2018-06-20T10:02:14.562Z,27.50
2018-06-20T10:04:48.918Z,27.80
2018-06-20T10:07:23.209Z,28.30
2018-06-20T10:09:57.551Z,28.80
2018-06-20T10:12:32.018Z,29.10
2018-06-20T10:15:01.035Z,28.70
2018-06-20T10:17:30.026Z,28.50
2018-06-20T10:19:59.023Z,28.40
2018-06-20T10:22:27.989Z,28.60
2018-06-20T10:24:56.993Z,28.70
2018-06-20T10:27:25.919Z,28.20
2018-06-20T10:29:54.885Z,28.20
2018-06-20T10:32:23.873Z,28.50
2018-06-20T10:34:52.822Z,28.60
2018-06-20T10:37:21.787Z,28.60
2018-06-20T10:39:50.829Z,28.60
2018-06-20T10:42:20.026Z,28.60
2018-06-20T10:44:48.945Z,28.20
2018-06-20T10:47:23.247Z,28.40
2018-06-20T10:49:52.226Z,28.60
2018-06-20T10:52:21.505Z,28.80
2018-06-20T10:54:50.533Z,29.10
2018-06-20T10:57:24.899Z,29.40
2018-06-20T10:59:59.170Z,29.10
2018-06-20T11:02:33.860Z,28.60
2018-06-20T11:05:08.292Z,28.40
2018-06-20T11:07:42.625Z,28.60
2018-06-20T11:10:17.198Z,28.80
2018-06-20T11:12:51.603Z,28.70
2018-06-20T11:15:20.636Z,28.80
2018-06-20T11:17:49.572Z,29.30
2018-06-20T11:20:22.792Z,29.60
2018-06-20T11:22:51.742Z,29.80
2018-06-20T11:25:20.758Z,30.00
2018-06-20T11:27:49.745Z,29.60
2018-06-20T11:30:18.878Z,29.40
2018-06-20T11:32:48.097Z,29.40
2018-06-20T11:35:17.086Z,29.30
2018-06-20T11:37:46.247Z,29.40
2018-06-20T11:40:15.190Z,29.60
2018-06-20T11:42:44.159Z,30.10
2018-06-20T11:45:13.857Z,30.30
2018-06-20T11:47:45.019Z,30.40
2018-06-20T11:50:14.584Z,30.50
2018-06-20T11:55:23.321Z,30.50
2018-06-20T11:57:56.750Z,30.60
2018-06-20T12:01:32.059Z,30.60
2018-06-20T12:04:06.439Z,30.60
2018-06-20T12:06:40.788Z,30.20
2018-06-20T12:09:15.236Z,30.10
2018-06-20T12:11:50.245Z,30.10
2018-06-20T12:15:25.380Z,30.40
2018-06-20T12:17:59.634Z,30.60
2018-06-20T12:20:34.656Z,30.90
2018-06-20T12:23:09.665Z,30.70
2018-06-20T12:25:44.175Z,30.70
2018-06-20T12:28:18.458Z,30.90
2018-06-20T12:30:52.774Z,30.90
2018-06-20T12:33:27.103Z,30.90
2018-06-20T12:36:01.411Z,30.90
2018-06-20T12:38:35.805Z,30.90
2018-06-20T12:41:10.389Z,30.90
2018-06-20T12:43:44.766Z,31.00
2018-06-20T12:46:17.108Z,31.10
2018-06-20T12:48:46.064Z,31.00
2018-06-20T12:51:15.011Z,31.30
2018-06-20T12:53:44.002Z,31.50
2018-06-20T12:56:12.948Z,31.80
2018-06-20T12:58:41.913Z,31.60
2018-06-20T13:01:10.845Z,31.40
2018-06-20T13:03:39.782Z,31.50
2018-06-20T13:06:08.709Z,31.50
2018-06-20T13:08:37.748Z,31.50
2018-06-20T13:11:06.749Z,31.70
2018-06-20T13:13:35.662Z,32.00
2018-06-20T13:16:04.606Z,31.80
2018-06-20T13:18:33.549Z,31.80
2018-06-20T13:21:02.599Z,31.60
2018-06-20T13:23:31.609Z,31.40
2018-06-20T13:26:00.822Z,31.50
2018-06-20T13:28:29.796Z,31.50
2018-06-20T13:31:04.200Z,31.20
2018-06-20T13:33:38.536Z,31.20
2018-06-20T13:36:12.862Z,31.30
2018-06-20T13:38:47.497Z,31.20
2018-06-20T13:41:21.758Z,31.30
2018-06-20T13:43:56.321Z,31.20
2018-06-20T13:46:30.687Z,31.20
2018-06-20T13:48:59.634Z,31.20
2018-06-20T13:51:28.682Z,31.20
2018-06-20T13:53:57.732Z,31.30
2018-06-20T13:56:26.697Z,31.50
2018-06-20T14:01:24.276Z,31.50
2018-06-20T14:03:53.586Z,31.40
2018-06-20T14:08:51.134Z,31.30
2018-06-20T14:11:20.148Z,31.60
2018-06-20T14:13:49.071Z,31.70
2018-06-20T14:16:18.150Z,31.60
2018-06-20T14:18:47.136Z,31.40
2018-06-20T14:21:21.554Z,31.20
2018-06-20T14:23:50.501Z,31.30
2018-06-20T14:26:20.006Z,31.50
2018-06-20T14:28:48.966Z,31.40
2018-06-20T14:31:23.527Z,31.50
2018-06-20T14:33:57.931Z,31.50
2018-06-20T14:36:32.329Z,31.30
2018-06-20T14:39:06.794Z,31.10
2018-06-20T14:41:41.208Z,31.10
2018-06-20T14:44:11.208Z,31.10
2018-06-20T14:46:41.148Z,31.10
2018-06-20T14:49:10.015Z,31.00
2018-06-20T14:51:38.999Z,31.10
2018-06-20T14:54:08.013Z,31.10
2018-06-20T14:56:37.107Z,31.10
2018-06-20T15:01:34.748Z,31.30
2018-06-20T15:04:03.725Z,31.30
2018-06-20T15:06:32.743Z,31.30
2018-06-20T15:09:01.766Z,31.20
2018-06-20T15:11:30.850Z,31.00
2018-06-20T15:13:59.873Z,30.90
2018-06-20T15:16:34.489Z,30.60
2018-06-20T15:19:03.498Z,30.40
2018-06-20T15:21:32.531Z,30.40
2018-06-20T15:24:01.502Z,30.50
2018-06-20T15:26:35.886Z,30.50
2018-06-20T15:29:10.371Z,30.60
2018-06-20T15:31:45.042Z,30.60
2018-06-20T15:34:19.506Z,30.50
2018-06-20T15:36:53.822Z,30.70
2018-06-20T15:41:51.598Z,30.90
2018-06-20T15:44:20.685Z,30.80
2018-06-20T15:46:49.837Z,30.80
2018-06-20T15:49:18.937Z,30.70
2018-06-20T15:51:48.049Z,30.70
2018-06-20T15:54:17.106Z,30.90
2018-06-20T15:56:46.260Z,31.00
2018-06-20T15:59:15.194Z,31.30
2018-06-20T16:01:44.418Z,31.10
2018-06-20T16:04:13.383Z,31.10
2018-06-20T16:06:42.394Z,30.80
2018-06-20T16:09:16.864Z,30.90
2018-06-20T16:14:14.446Z,30.60
2018-06-20T16:19:17.372Z,30.60
2018-06-20T16:21:51.963Z,30.70
2018-06-20T16:24:26.147Z,30.80
2018-06-20T16:27:00.540Z,30.70
2018-06-20T16:29:34.789Z,30.70
2018-06-20T16:32:03.897Z,30.60
2018-06-20T16:34:33.078Z,30.50
2018-06-20T16:37:02.561Z,30.40
2018-06-20T16:39:31.561Z,30.30
2018-06-20T16:42:00.763Z,30.20
2018-06-20T16:44:30.561Z,30.10
2018-06-20T16:46:59.634Z,30.10
2018-06-20T16:49:28.666Z,30.10
2018-06-20T16:51:57.624Z,30.00
2018-06-20T16:54:26.625Z,30.00
2018-06-20T16:56:55.626Z,29.90
2018-06-20T16:59:24.993Z,29.80
2018-06-20T17:02:57.257Z,29.70
2018-06-20T17:05:26.335Z,29.60
2018-06-20T17:07:55.310Z,29.40
2018-06-20T17:10:24.410Z,29.20
2018-06-20T17:12:59.386Z,29.20
2018-06-20T17:15:33.820Z,29.20
2018-06-20T17:18:08.306Z,29.20
2018-06-20T17:20:42.767Z,28.90
2018-06-20T17:23:17.097Z,28.80
2018-06-20T17:25:46.264Z,28.60
2018-06-20T17:28:15.233Z,28.60
2018-06-20T17:30:44.281Z,28.60
2018-06-20T17:33:13.252Z,28.60
2018-06-20T17:35:42.218Z,28.50
2018-06-20T17:38:11.198Z,28.40
2018-06-20T17:40:40.269Z,28.40
2018-06-20T17:43:09.432Z,28.10
2018-06-20T17:45:38.501Z,28.20
2018-06-20T17:48:07.504Z,28.00
2018-06-20T17:50:36.501Z,28.10
2018-06-20T17:53:05.560Z,28.20
2018-06-20T17:55:34.641Z,28.10
2018-06-20T17:58:03.575Z,28.10
2018-06-20T18:00:34.861Z,28.20
2018-06-20T18:03:03.886Z,28.20
2018-06-20T18:05:38.365Z,28.20
2018-06-20T18:08:12.983Z,28.10
2018-06-20T18:10:47.746Z,28.20
2018-06-20T18:13:17.961Z,28.10
2018-06-20T18:15:52.454Z,28.00
2018-06-20T18:18:21.406Z,28.00
2018-06-20T18:20:50.382Z,27.90
2018-06-20T18:23:19.450Z,27.80
2018-06-20T18:25:48.472Z,27.60
2018-06-20T18:28:17.586Z,27.60
2018-06-20T18:30:47.246Z,27.60
2018-06-20T18:33:16.268Z,27.40
2018-06-20T18:35:45.264Z,27.50
2018-06-20T18:38:14.257Z,27.40
2018-06-20T18:40:43.201Z,27.50
2018-06-20T18:43:12.236Z,27.50
2018-06-20T18:45:41.509Z,27.60
2018-06-20T18:48:15.848Z,27.50
2018-06-20T18:50:44.866Z,27.30
2018-06-20T18:53:14.185Z,27.20
2018-06-20T18:55:43.186Z,27.00
2018-06-20T18:58:17.463Z,26.80
2018-06-20T19:00:51.881Z,26.80
2018-06-20T19:03:26.417Z,26.60
2018-06-20T19:08:34.936Z,26.20
2018-06-20T19:11:04.004Z,26.10
2018-06-20T19:13:32.977Z,25.90
2018-06-20T19:16:02.012Z,25.80
2018-06-20T19:18:31.092Z,25.70
2018-06-20T19:21:00.095Z,25.60
2018-06-20T19:23:29.537Z,25.50
2018-06-20T19:25:58.697Z,25.40
2018-06-20T19:28:27.663Z,25.40
2018-06-20T19:30:56.802Z,25.30
2018-06-20T19:33:25.902Z,25.30
2018-06-20T19:35:54.943Z,25.20
2018-06-20T19:38:24.007Z,25.00
2018-06-20T19:40:53.051Z,24.90
2018-06-20T19:43:22.020Z,24.80
2018-06-20T19:45:51.025Z,24.70
2018-06-20T19:48:19.991Z,24.60
2018-06-20T19:50:48.998Z,24.50
2018-06-20T19:53:18.126Z,24.40
2018-06-20T19:55:47.133Z,24.30
2018-06-20T19:58:16.265Z,24.20
2018-06-20T20:00:45.274Z,24.10
2018-06-20T20:03:14.434Z,24.10
2018-06-20T20:05:43.412Z,24.00
2018-06-20T20:08:12.358Z,23.90
2018-06-20T20:10:41.435Z,23.80
2018-06-20T20:13:10.764Z,23.80
2018-06-20T20:15:39.890Z,23.70
2018-06-20T20:18:08.901Z,23.60
2018-06-20T20:20:37.962Z,23.50
2018-06-20T20:23:07.262Z,23.50
2018-06-20T20:25:36.641Z,23.30
2018-06-20T20:28:05.631Z,23.30
2018-06-20T20:30:35.714Z,23.20
2018-06-20T20:33:05.449Z,23.10
2018-06-20T20:35:34.454Z,23.00
2018-06-20T20:38:03.796Z,22.90
2018-06-20T20:40:32.878Z,22.80
2018-06-20T20:43:02.025Z,22.80
2018-06-20T20:45:31.011Z,22.70
2018-06-20T20:48:00.068Z,22.60
2018-06-20T20:50:29.349Z,22.50
2018-06-20T20:52:58.469Z,22.40
2018-06-20T20:55:27.538Z,22.30
2018-06-20T21:00:25.142Z,22.20
2018-06-20T21:02:54.177Z,22.00
2018-06-20T21:05:23.121Z,21.90
2018-06-20T21:07:52.176Z,21.80
2018-06-20T21:12:49.826Z,21.60
2018-06-20T21:15:18.874Z,21.50
2018-06-20T21:17:47.821Z,21.30
2018-06-20T21:20:16.772Z,21.20
2018-06-20T21:22:45.747Z,21.10
2018-06-20T21:25:14.812Z,21.00
2018-06-20T21:27:45.272Z,20.90
2018-06-20T21:30:14.322Z,20.80
2018-06-20T21:32:43.273Z,20.70
2018-06-20T21:35:12.350Z,20.60
2018-06-20T21:37:41.298Z,20.50
2018-06-20T21:40:12.237Z,20.40
2018-06-20T21:42:41.309Z,20.30
2018-06-20T21:45:10.370Z,20.20
2018-06-20T21:47:39.379Z,20.20
2018-06-20T21:50:08.318Z,20.10
2018-06-20T21:52:37.345Z,20.00
2018-06-20T21:55:06.508Z,19.90
2018-06-20T21:57:35.446Z,19.80
2018-06-20T22:00:07.495Z,19.70
2018-06-20T22:02:36.755Z,19.70
2018-06-20T22:05:05.976Z,19.60
2018-06-20T22:07:35.303Z,19.50
2018-06-20T22:10:04.681Z,19.40
2018-06-20T22:12:33.684Z,19.40
2018-06-20T22:15:02.945Z,19.30
2018-06-20T22:17:32.117Z,19.20
2018-06-20T22:20:01.028Z,19.20
2018-06-20T22:22:30.057Z,19.10
2018-06-20T22:24:59.053Z,19.00
2018-06-20T22:27:27.996Z,19.00
2018-06-20T22:29:56.916Z,19.00
2018-06-20T22:32:26.090Z,18.90
2018-06-20T22:34:55.022Z,18.80
2018-06-20T22:37:23.960Z,18.80
2018-06-20T22:39:52.929Z,18.70
2018-06-20T22:42:22.060Z,18.60
2018-06-20T22:44:51.352Z,18.60
2018-06-20T22:47:20.278Z,18.50
2018-06-20T22:49:49.298Z,18.40
2018-06-20T22:52:18.254Z,18.40
2018-06-20T22:54:47.250Z,18.40
2018-06-20T22:57:16.174Z,18.40
2018-06-20T22:59:45.119Z,18.50
2018-06-20T23:02:14.158Z,18.60
2018-06-20T23:04:43.125Z,18.70
2018-06-20T23:07:12.089Z,18.80
2018-06-20T23:09:41.048Z,18.80
2018-06-20T23:12:09.989Z,18.90
2018-06-20T23:14:39.010Z,18.90
2018-06-20T23:17:08.029Z,18.80
2018-06-20T23:19:37.021Z,18.80
2018-06-20T23:22:06.020Z,18.70
2018-06-20T23:24:35.143Z,18.60
2018-06-20T23:27:04.294Z,18.50
2018-06-20T23:29:33.257Z,18.40
2018-06-20T23:32:02.225Z,18.40
2018-06-20T23:34:31.165Z,18.30
2018-06-20T23:37:00.110Z,18.30
2018-06-20T23:39:29.064Z,18.30
2018-06-20T23:41:58.029Z,18.30
2018-06-20T23:44:27.024Z,18.20
2018-06-20T23:46:56.001Z,18.10
2018-06-20T23:49:24.971Z,18.10
2018-06-20T23:51:53.906Z,18.00
2018-06-20T23:54:22.872Z,17.90
2018-06-20T23:56:51.900Z,17.90
2018-06-20T23:59:20.918Z,17.80
